createdAt,value
2018-05-07T00:02:11.342Z,64.51
2018-05-07T00:04:38.740Z,63.55
2018-05-07T00:07:06.134Z,63.52
2018-05-07T00:09:33.571Z,64.34
2018-05-07T00:12:00.928Z,64.58
2018-05-07T00:14:28.327Z,64.01
2018-05-07T00:16:55.719Z,62.59
2018-05-07T00:19:23.111Z,62.53
2018-05-07T00:21:50.504Z,62.09
2018-05-07T00:24:17.906Z,60.90
2018-05-07T00:26:45.327Z,60.36
2018-05-07T00:29:12.753Z,61.04
2018-05-07T00:31:40.117Z,60.95
2018-05-07T00:34:07.515Z,60.67
2018-05-07T00:36:34.913Z,61.26
2018-05-07T00:39:02.326Z,60.86
2018-05-07T00:41:29.711Z,60.29
2018-05-07T00:43:57.107Z,59.63
2018-05-07T00:46:24.497Z,59.68
2018-05-07T00:48:51.892Z,58.53
2018-05-07T00:51:19.294Z,58.39
2018-05-07T00:53:46.683Z,60.74
2018-05-07T00:56:14.071Z,59.73
2018-05-07T00:58:41.465Z,59.72
2018-05-07T01:01:08.856Z,60.14
2018-05-07T01:03:36.243Z,60.88
2018-05-07T01:06:03.643Z,61.52
2018-05-07T01:08:31.036Z,60.84
2018-05-07T01:10:58.421Z,60.33
2018-05-07T01:13:25.822Z,60.40
2018-05-07T01:15:53.214Z,60.10
2018-05-07T01:18:20.694Z,61.01
2018-05-07T01:20:48.094Z,61.41
2018-05-07T01:23:15.483Z,61.65
2018-05-07T01:25:42.918Z,61.51
2018-05-07T01:28:10.294Z,60.71
2018-05-07T01:30:37.686Z,60.96
2018-05-07T01:33:05.090Z,60.27
2018-05-07T01:35:32.466Z,60.22
2018-05-07T01:37:59.892Z,59.43
2018-05-07T01:40:27.279Z,59.78
2018-05-07T01:42:54.666Z,62.15
2018-05-07T01:45:22.063Z,61.88
2018-05-07T01:47:49.447Z,61.95
2018-05-07T01:50:16.840Z,61.67
2018-05-07T01:52:44.235Z,61.82
2018-05-07T01:55:11.631Z,62.48
2018-05-07T01:57:39.029Z,62.27
2018-05-07T02:00:06.415Z,62.89
2018-05-07T02:02:33.803Z,63.42
2018-05-07T02:05:01.195Z,63.97
2018-05-07T02:07:28.599Z,63.06
2018-05-07T02:09:55.987Z,63.55
2018-05-07T02:12:23.604Z,63.89
2018-05-07T02:14:50.982Z,64.49
2018-05-07T02:17:18.375Z,63.75
2018-05-07T02:19:45.779Z,62.95
2018-05-07T02:22:13.163Z,63.96
2018-05-07T02:24:40.559Z,64.45
2018-05-07T02:27:07.944Z,64.48
2018-05-07T02:29:35.348Z,65.18
2018-05-07T02:32:02.730Z,65.53
2018-05-07T02:34:30.129Z,66.06
2018-05-07T02:36:57.523Z,66.22
2018-05-07T02:39:24.927Z,66.11
2018-05-07T02:41:52.316Z,66.09
2018-05-07T02:44:19.703Z,66.53
2018-05-07T02:46:47.093Z,66.25
2018-05-07T02:49:14.488Z,66.51
2018-05-07T02:51:41.888Z,66.47
2018-05-07T02:54:09.347Z,65.51
2018-05-07T02:56:36.756Z,65.11
2018-05-07T02:59:04.144Z,65.28
2018-05-07T03:01:31.552Z,65.43
2018-05-07T03:03:58.937Z,66.72
2018-05-07T03:06:26.328Z,67.62
2018-05-07T03:08:53.720Z,67.81
2018-05-07T03:11:21.108Z,67.78
2018-05-07T03:13:48.499Z,67.82
2018-05-07T03:16:15.899Z,67.81
2018-05-07T03:18:43.315Z,68.03
2018-05-07T03:21:10.703Z,68.12
2018-05-07T03:23:38.092Z,67.99
2018-05-07T03:26:05.495Z,67.77
2018-05-07T03:28:32.884Z,67.26
2018-05-07T03:31:00.274Z,66.54
2018-05-07T03:33:27.663Z,66.47
2018-05-07T03:35:55.064Z,66.69
2018-05-07T03:38:22.442Z,67.63
2018-05-07T03:40:49.860Z,68.46
2018-05-07T03:43:17.222Z,69.21
2018-05-07T03:45:44.619Z,69.20
2018-05-07T03:48:12.007Z,69.19
2018-05-07T03:50:39.402Z,69.36
2018-05-07T03:53:06.787Z,69.71
2018-05-07T03:55:34.172Z,69.08
2018-05-07T03:58:01.570Z,69.51
2018-05-07T04:00:28.958Z,69.67
2018-05-07T04:02:56.343Z,69.23
2018-05-07T04:05:24.567Z,69.57
2018-05-07T04:07:51.954Z,69.71
2018-05-07T04:10:19.334Z,70.41
2018-05-07T04:12:46.726Z,70.66
2018-05-07T04:15:14.103Z,70.90
2018-05-07T04:17:53.372Z,71.21
2018-05-07T04:20:32.628Z,71.00
2018-05-07T04:23:11.890Z,71.29
2018-05-07T04:25:39.285Z,71.26
2018-05-07T04:28:06.668Z,70.62
2018-05-07T04:30:34.044Z,71.00
2018-05-07T04:33:01.424Z,71.23
2018-05-07T04:35:28.806Z,69.82
2018-05-07T04:37:56.186Z,68.11
2018-05-07T04:40:23.578Z,68.62
2018-05-07T04:42:51.026Z,69.35
2018-05-07T04:45:18.338Z,69.55
2018-05-07T04:47:45.727Z,69.12
2018-05-07T04:50:13.119Z,66.66
2018-05-07T04:52:40.499Z,65.83
2018-05-07T04:55:07.896Z,65.87
2018-05-07T04:57:35.267Z,65.35
2018-05-07T05:00:02.650Z,65.30
2018-05-07T05:02:30.036Z,64.16
2018-05-07T05:04:57.410Z,64.99
2018-05-07T05:07:24.802Z,66.59
2018-05-07T05:09:52.178Z,66.14
2018-05-07T05:12:19.569Z,64.52
2018-05-07T05:14:46.943Z,66.06
2018-05-07T05:17:14.318Z,64.78
2018-05-07T05:19:41.702Z,64.25
2018-05-07T05:22:09.086Z,65.16
2018-05-07T05:24:36.475Z,66.40
2018-05-07T05:27:03.846Z,64.88
2018-05-07T05:29:31.235Z,65.03
2018-05-07T05:31:58.611Z,63.00
2018-05-07T05:34:26.015Z,65.51
2018-05-07T05:36:53.399Z,65.05
2018-05-07T05:39:20.787Z,66.06
2018-05-07T05:41:48.175Z,66.21
2018-05-07T05:44:15.567Z,65.93
2018-05-07T05:46:42.959Z,65.48
2018-05-07T05:49:10.334Z,64.57
2018-05-07T05:51:37.714Z,65.43
2018-05-07T05:54:05.099Z,64.50
2018-05-07T05:56:32.486Z,65.04
2018-05-07T05:58:59.865Z,64.45
2018-05-07T06:01:27.255Z,63.48
2018-05-07T06:03:54.709Z,61.92
2018-05-07T06:06:22.014Z,63.34
2018-05-07T06:08:49.402Z,62.51
2018-05-07T06:11:16.783Z,63.01
2018-05-07T06:13:44.164Z,63.24
2018-05-07T06:16:11.545Z,62.48
2018-05-07T06:18:38.930Z,62.80
2018-05-07T06:21:06.320Z,63.12
2018-05-07T06:23:33.778Z,62.54
2018-05-07T06:26:01.095Z,62.21
2018-05-07T06:28:28.476Z,63.01
2018-05-07T06:30:55.859Z,61.13
2018-05-07T06:33:23.234Z,61.89
2018-05-07T06:35:50.618Z,60.84
2018-05-07T06:38:17.998Z,58.81
2018-05-07T06:40:45.387Z,61.08
2018-05-07T06:43:12.769Z,61.38
2018-05-07T06:45:40.196Z,60.71
2018-05-07T06:48:07.539Z,58.97
2018-05-07T06:50:34.924Z,58.69
2018-05-07T06:53:02.309Z,58.52
2018-05-07T06:55:29.687Z,58.02
2018-05-07T06:57:57.073Z,57.70
2018-05-07T07:00:24.459Z,58.78
2018-05-07T07:02:51.999Z,56.80
2018-05-07T07:05:19.235Z,57.33
2018-05-07T07:07:46.632Z,58.17
2018-05-07T07:10:14.006Z,56.37
2018-05-07T07:12:41.387Z,56.74
2018-05-07T07:15:08.776Z,57.83
2018-05-07T07:17:36.151Z,54.29
2018-05-07T07:20:03.536Z,57.70
2018-05-07T07:22:30.935Z,56.48
2018-05-07T07:24:58.318Z,55.52
2018-05-07T07:27:25.710Z,54.42
2018-05-07T07:29:53.094Z,54.00
2018-05-07T07:32:20.471Z,54.67
2018-05-07T07:34:47.847Z,56.25
2018-05-07T07:37:15.231Z,55.48
2018-05-07T07:39:42.606Z,54.06
2018-05-07T07:42:09.991Z,53.09
2018-05-07T07:44:37.370Z,52.57
2018-05-07T07:47:04.787Z,52.11
2018-05-07T07:49:32.207Z,53.61
2018-05-07T07:51:59.600Z,54.34
2018-05-07T07:54:26.975Z,54.91
2018-05-07T07:56:54.359Z,52.90
2018-05-07T07:59:21.793Z,51.77
2018-05-07T08:01:49.126Z,52.01
2018-05-07T08:04:16.530Z,53.70
2018-05-07T08:06:43.900Z,51.97
2018-05-07T08:09:11.298Z,50.29
2018-05-07T08:11:38.680Z,52.75
2018-05-07T08:14:06.063Z,50.66
2018-05-07T08:16:33.443Z,52.62
2018-05-07T08:19:00.852Z,51.49
2018-05-07T08:21:28.234Z,52.13
2018-05-07T08:23:55.660Z,51.87
2018-05-07T08:26:23.043Z,48.92
2018-05-07T08:28:50.419Z,51.05
2018-05-07T08:31:17.802Z,49.68
2018-05-07T08:33:45.179Z,47.69
2018-05-07T08:36:12.563Z,48.44
2018-05-07T08:38:39.947Z,46.29
2018-05-07T08:41:07.330Z,48.30
2018-05-07T08:43:34.711Z,46.31
2018-05-07T08:46:02.167Z,46.04
2018-05-07T08:48:29.604Z,44.61
2018-05-07T08:50:56.965Z,44.42
2018-05-07T08:53:24.306Z,43.74
2018-05-07T08:55:51.692Z,43.36
2018-05-07T08:58:19.083Z,43.64
2018-05-07T09:00:46.462Z,44.67
2018-05-07T09:03:13.856Z,42.87
2018-05-07T09:05:41.243Z,40.20
2018-05-07T09:08:08.668Z,38.59
2018-05-07T09:10:36.019Z,41.43
2018-05-07T09:13:03.405Z,41.80
2018-05-07T09:15:30.783Z,40.48
2018-05-07T09:17:58.175Z,41.39
2018-05-07T09:20:25.559Z,40.23
2018-05-07T09:22:52.943Z,38.40
2018-05-07T09:25:20.338Z,38.49
2018-05-07T09:27:47.711Z,40.34
2018-05-07T09:30:15.094Z,37.60
2018-05-07T09:32:42.503Z,40.14
2018-05-07T09:35:09.899Z,36.29
2018-05-07T09:37:37.274Z,38.82
2018-05-07T09:40:04.659Z,38.47
2018-05-07T09:42:32.041Z,33.43
2018-05-07T09:44:59.435Z,33.57
2018-05-07T09:47:26.818Z,32.00
2018-05-07T09:49:54.202Z,34.26
2018-05-07T09:52:21.878Z,33.27
2018-05-07T09:54:49.258Z,33.48
2018-05-07T09:57:16.721Z,34.89
2018-05-07T09:59:44.103Z,31.90
2018-05-07T10:02:11.490Z,29.20
2018-05-07T10:04:38.875Z,29.58
2018-05-07T10:07:06.258Z,30.59
2018-05-07T10:09:33.639Z,30.81
2018-05-07T10:12:01.031Z,31.88
2018-05-07T10:14:28.419Z,30.96
2018-05-07T10:16:55.812Z,26.35
2018-05-07T10:19:23.199Z,29.70
2018-05-07T10:21:50.579Z,27.85
2018-05-07T10:24:18.181Z,29.78
2018-05-07T10:26:45.475Z,27.47
2018-05-07T10:29:12.859Z,28.58
2018-05-07T10:31:40.244Z,28.68
2018-05-07T10:34:07.635Z,27.72
2018-05-07T10:36:35.025Z,28.93
2018-05-07T10:39:02.414Z,27.94
2018-05-07T10:41:29.794Z,28.79
2018-05-07T10:43:57.203Z,30.41
2018-05-07T10:46:24.591Z,25.34
2018-05-07T10:48:51.979Z,27.38
2018-05-07T10:51:19.354Z,23.34
2018-05-07T10:53:46.751Z,27.12
2018-05-07T10:56:14.162Z,27.60
2018-05-07T10:58:41.538Z,23.96
2018-05-07T11:01:08.922Z,25.46
2018-05-07T11:03:36.320Z,25.90
2018-05-07T11:06:03.703Z,30.10
2018-05-07T11:08:31.079Z,21.83
2018-05-07T11:10:58.458Z,25.86
2018-05-07T11:13:25.839Z,25.88
2018-05-07T11:15:53.235Z,23.70
2018-05-07T11:18:20.626Z,24.40
2018-05-07T11:20:48.051Z,27.14
2018-05-07T11:23:15.447Z,27.08
2018-05-07T11:25:42.859Z,29.65
2018-05-07T11:28:10.231Z,25.83
2018-05-07T11:30:37.613Z,25.10
2018-05-07T11:33:05.008Z,25.87
2018-05-07T11:35:32.394Z,23.53
2018-05-07T11:37:59.786Z,30.20
2018-05-07T11:40:27.176Z,27.14
2018-05-07T11:42:54.559Z,26.23
2018-05-07T11:45:22.015Z,25.84
2018-05-07T11:47:49.422Z,27.12
2018-05-07T11:50:16.839Z,24.71
2018-05-07T11:52:44.235Z,24.18
2018-05-07T11:55:11.691Z,27.04
2018-05-07T11:57:39.085Z,27.81
2018-05-07T12:00:06.510Z,26.02
2018-05-07T12:02:33.908Z,22.43
2018-05-07T12:05:01.320Z,26.48
2018-05-07T12:07:28.926Z,26.77
2018-05-07T12:09:56.328Z,27.17
2018-05-07T12:12:23.732Z,23.87
2018-05-07T12:14:51.131Z,24.60
2018-05-07T12:17:18.515Z,25.11
2018-05-07T12:19:45.910Z,25.07
2018-05-07T12:22:13.302Z,22.03
2018-05-07T12:24:40.695Z,24.35
2018-05-07T12:27:08.083Z,25.18
2018-05-07T12:29:35.474Z,25.61
2018-05-07T12:32:02.860Z,23.54
2018-05-07T12:34:30.339Z,23.43
2018-05-07T12:36:57.734Z,25.01
2018-05-07T12:39:25.139Z,24.20
2018-05-07T12:41:52.527Z,24.46
2018-05-07T12:44:19.920Z,21.73
2018-05-07T12:46:47.388Z,27.24
2018-05-07T12:49:14.719Z,25.75
2018-05-07T12:51:42.110Z,27.16
2018-05-07T12:54:09.515Z,24.13
2018-05-07T12:56:36.909Z,25.99
2018-05-07T12:59:04.366Z,23.67
2018-05-07T13:01:31.787Z,24.57
2018-05-07T13:03:59.562Z,22.88
2018-05-07T13:06:26.944Z,24.24
2018-05-07T13:08:54.347Z,27.05
2018-05-07T13:11:21.759Z,27.47
2018-05-07T13:13:49.147Z,23.56
2018-05-07T13:16:16.549Z,26.95
2018-05-07T13:18:43.971Z,22.30
2018-05-07T13:21:11.550Z,21.47
2018-05-07T13:23:38.934Z,23.42
2018-05-07T13:26:06.338Z,21.50
2018-05-07T13:28:33.803Z,24.02
2018-05-07T13:31:01.194Z,23.04
2018-05-07T13:33:28.579Z,23.42
2018-05-07T13:35:55.982Z,21.26
2018-05-07T13:38:23.355Z,22.41
2018-05-07T13:40:50.829Z,25.10
2018-05-07T13:43:18.191Z,26.26
2018-05-07T13:45:45.570Z,23.24
2018-05-07T13:48:12.955Z,24.23
2018-05-07T13:50:40.338Z,21.32
2018-05-07T13:53:07.746Z,26.62
2018-05-07T13:55:35.124Z,23.92
2018-05-07T13:58:02.511Z,24.35
2018-05-07T14:00:29.900Z,23.05
2018-05-07T14:02:57.413Z,22.79
2018-05-07T14:05:24.802Z,25.81
2018-05-07T14:07:52.195Z,22.88
2018-05-07T14:10:19.603Z,23.01
2018-05-07T14:12:47.024Z,26.53
2018-05-07T14:15:14.495Z,26.28
2018-05-07T14:17:41.891Z,25.13
2018-05-07T14:20:09.274Z,22.09
2018-05-07T14:22:36.686Z,24.23
2018-05-07T14:25:04.056Z,22.84
2018-05-07T14:27:31.484Z,23.03
2018-05-07T14:29:58.896Z,25.60
2018-05-07T14:32:26.284Z,25.45
2018-05-07T14:34:53.676Z,25.89
2018-05-07T14:37:21.058Z,26.76
2018-05-07T14:39:48.448Z,24.37
2018-05-07T14:42:15.830Z,27.50
2018-05-07T14:44:43.241Z,25.28
2018-05-07T14:47:10.651Z,27.81
2018-05-07T14:49:38.075Z,29.09
2018-05-07T14:52:05.791Z,26.25
2018-05-07T14:54:33.168Z,24.14
2018-05-07T14:57:00.566Z,27.36
2018-05-07T14:59:27.956Z,25.26
2018-05-07T15:01:55.345Z,28.02
2018-05-07T15:04:22.728Z,27.21
2018-05-07T15:06:50.114Z,23.49
2018-05-07T15:09:17.507Z,25.73
2018-05-07T15:11:44.887Z,24.60
2018-05-07T15:14:22.013Z,25.62
2018-05-07T15:16:49.400Z,22.52
2018-05-07T15:19:16.779Z,24.60
2018-05-07T15:21:44.179Z,27.10
2018-05-07T15:24:11.566Z,27.08
2018-05-07T15:26:38.965Z,24.86
2018-05-07T15:29:06.426Z,26.46
2018-05-07T15:31:33.742Z,26.47
2018-05-07T15:34:01.140Z,26.19
2018-05-07T15:36:28.523Z,25.03
2018-05-07T15:38:55.919Z,25.08
2018-05-07T15:41:23.291Z,26.83
2018-05-07T15:43:50.732Z,27.61
2018-05-07T15:46:18.063Z,24.44
2018-05-07T15:48:45.468Z,26.56
2018-05-07T15:51:12.847Z,26.39
2018-05-07T15:53:40.222Z,26.07
2018-05-07T15:56:07.615Z,27.22
2018-05-07T15:58:34.994Z,23.98
2018-05-07T16:01:02.384Z,27.37
2018-05-07T16:03:29.755Z,26.21
2018-05-07T16:05:57.153Z,24.35
2018-05-07T16:08:24.539Z,24.29
2018-05-07T16:10:51.923Z,26.10
2018-05-07T16:13:19.310Z,27.37
2018-05-07T16:15:46.701Z,27.60
2018-05-07T16:18:14.109Z,26.33
2018-05-07T16:20:41.503Z,27.46
2018-05-07T16:23:08.909Z,26.59
2018-05-07T16:25:36.352Z,25.65
2018-05-07T16:28:03.753Z,26.98
2018-05-07T16:30:31.131Z,27.78
2018-05-07T16:32:58.531Z,27.52
2018-05-07T16:35:25.923Z,28.89
2018-05-07T16:37:53.323Z,29.87
2018-05-07T16:40:20.790Z,29.15
2018-05-07T16:42:48.227Z,28.33
2018-05-07T16:45:15.575Z,28.17
2018-05-07T16:47:42.938Z,30.69
2018-05-07T16:50:10.335Z,29.58
2018-05-07T16:52:37.719Z,28.45
2018-05-07T16:55:05.114Z,30.38
2018-05-07T16:57:32.503Z,30.27
2018-05-07T16:59:59.903Z,30.84
2018-05-07T17:02:27.291Z,30.43
2018-05-07T17:04:54.679Z,30.79
2018-05-07T17:07:22.171Z,27.27
2018-05-07T17:09:49.561Z,29.39
2018-05-07T17:12:16.955Z,30.98
2018-05-07T17:14:44.355Z,31.35
2018-05-07T17:17:11.740Z,28.30
2018-05-07T17:19:39.135Z,29.11
2018-05-07T17:22:06.530Z,30.00
2018-05-07T17:24:33.931Z,30.85
2018-05-07T17:27:01.321Z,31.34
2018-05-07T17:29:28.707Z,31.48
2018-05-07T17:31:56.099Z,32.32
2018-05-07T17:34:23.619Z,30.61
2018-05-07T17:36:51.023Z,31.28
2018-05-07T17:39:18.407Z,33.85
2018-05-07T17:41:45.883Z,34.23
2018-05-07T17:44:24.899Z,33.16
2018-05-07T17:50:08.944Z,34.97
2018-05-07T17:52:36.363Z,34.21
2018-05-07T17:55:03.841Z,34.11
2018-05-07T17:57:31.228Z,34.05
2018-05-07T17:59:58.621Z,34.99
2018-05-07T18:02:26.008Z,36.42
2018-05-07T18:04:53.392Z,37.93
2018-05-07T18:07:20.791Z,38.70
2018-05-07T18:09:48.191Z,38.65
2018-05-07T18:12:15.579Z,39.69
2018-05-07T18:14:43.007Z,40.11
2018-05-07T18:17:10.383Z,40.20
2018-05-07T18:19:37.771Z,40.59
2018-05-07T18:22:05.845Z,40.58
2018-05-07T18:24:33.239Z,40.75
2018-05-07T18:27:00.662Z,39.93
2018-05-07T18:29:28.042Z,39.89
2018-05-07T18:31:55.431Z,40.52
2018-05-07T18:34:22.815Z,41.02
2018-05-07T18:36:50.202Z,40.93
2018-05-07T18:39:17.596Z,40.87
2018-05-07T18:41:44.982Z,41.33
2018-05-07T18:44:12.394Z,41.49
2018-05-07T18:46:39.806Z,42.48
2018-05-07T18:49:07.199Z,42.70
2018-05-07T18:51:34.583Z,43.53
2018-05-07T18:54:01.967Z,43.08
2018-05-07T18:56:29.358Z,42.71
2018-05-07T18:58:56.794Z,42.96
2018-05-07T19:01:24.187Z,42.96
2018-05-07T19:03:51.588Z,42.86
2018-05-07T19:06:18.971Z,43.03
2018-05-07T19:08:46.351Z,43.24
2018-05-07T19:11:13.740Z,43.74
2018-05-07T19:13:41.126Z,44.01
2018-05-07T19:16:08.524Z,44.14
2018-05-07T19:18:35.903Z,44.78
2018-05-07T19:21:03.306Z,44.31
2018-05-07T19:23:30.696Z,44.03
2018-05-07T19:25:58.087Z,44.36
2018-05-07T19:28:25.533Z,44.94
2018-05-07T19:30:52.959Z,45.24
2018-05-07T19:33:20.351Z,45.94
2018-05-07T19:35:47.739Z,45.92
2018-05-07T19:38:15.126Z,44.96
2018-05-07T19:40:42.519Z,45.21
2018-05-07T19:43:09.902Z,45.52
2018-05-07T19:45:37.304Z,45.75
2018-05-07T19:48:04.694Z,45.65
2018-05-07T19:50:32.094Z,45.62
2018-05-07T19:52:59.483Z,45.18
2018-05-07T19:55:26.872Z,46.55
2018-05-07T19:57:54.255Z,45.81
2018-05-07T20:00:21.647Z,44.79
2018-05-07T20:02:49.057Z,44.15
2018-05-07T20:05:16.447Z,45.05
2018-05-07T20:07:43.839Z,44.12
2018-05-07T20:10:11.231Z,44.59
2018-05-07T20:12:38.715Z,45.22
2018-05-07T20:15:06.017Z,45.97
2018-05-07T20:17:33.399Z,45.66
2018-05-07T20:20:00.827Z,46.32
2018-05-07T20:22:28.175Z,46.14
2018-05-07T20:24:55.762Z,46.76
2018-05-07T20:27:23.162Z,47.10
2018-05-07T20:29:50.558Z,46.17
2018-05-07T20:32:17.940Z,45.97
2018-05-07T20:34:45.337Z,44.96
2018-05-07T20:37:12.722Z,45.37
2018-05-07T20:39:40.115Z,45.45
2018-05-07T20:42:07.502Z,45.31
2018-05-07T20:44:34.898Z,45.06
2018-05-07T20:47:02.339Z,44.44
2018-05-07T20:49:29.738Z,45.66
2018-05-07T20:51:57.136Z,45.09
2018-05-07T20:54:24.529Z,45.40
2018-05-07T20:56:51.915Z,44.79
2018-05-07T20:59:19.464Z,45.00
2018-05-07T21:01:46.839Z,45.16
2018-05-07T21:04:14.231Z,45.91
2018-05-07T21:06:41.615Z,44.93
2018-05-07T21:09:08.999Z,44.50
2018-05-07T21:11:36.391Z,44.77
2018-05-07T21:14:03.782Z,44.49
2018-05-07T21:16:31.177Z,44.83
2018-05-07T21:18:58.559Z,45.72
2018-05-07T21:21:25.952Z,44.93
2018-05-07T21:23:53.343Z,45.33
2018-05-07T21:26:20.763Z,45.39
2018-05-07T21:28:48.114Z,45.57
2018-05-07T21:31:15.502Z,45.87
2018-05-07T21:33:42.894Z,45.17
2018-05-07T21:36:10.287Z,46.04
2018-05-07T21:38:37.684Z,45.37
2018-05-07T21:41:05.072Z,45.52
2018-05-07T21:43:32.542Z,46.55
2018-05-07T21:45:59.859Z,45.98
2018-05-07T21:48:27.246Z,46.03
2018-05-07T21:50:54.630Z,45.49
2018-05-07T21:53:22.043Z,45.56
2018-05-07T21:55:49.431Z,46.15
2018-05-07T21:58:16.819Z,46.17
2018-05-07T22:00:44.203Z,46.49
2018-05-07T22:03:11.612Z,46.53
2018-05-07T22:05:38.991Z,46.40
2018-05-07T22:08:06.461Z,46.34
2018-05-07T22:10:33.778Z,46.41
2018-05-07T22:13:01.175Z,46.65
2018-05-07T22:15:28.660Z,46.51
2018-05-07T22:17:56.007Z,46.33
2018-05-07T22:20:23.387Z,46.26
2018-05-07T22:22:50.778Z,46.54
2018-05-07T22:25:18.167Z,46.62
2018-05-07T22:27:45.579Z,46.92
2018-05-07T22:30:12.965Z,47.72
2018-05-07T22:32:40.358Z,47.42
2018-05-07T22:35:07.755Z,47.96
2018-05-07T22:37:35.139Z,47.77
2018-05-07T22:40:02.535Z,48.64
2018-05-07T22:42:29.927Z,47.89
2018-05-07T22:44:57.322Z,48.11
2018-05-07T22:47:24.706Z,48.28
2018-05-07T22:49:52.103Z,48.63
2018-05-07T22:52:19.554Z,49.13
2018-05-07T22:54:46.967Z,48.97
2018-05-07T22:57:14.359Z,48.87
2018-05-07T22:59:41.751Z,49.12
2018-05-07T23:02:09.141Z,49.49
2018-05-07T23:04:36.807Z,49.47
2018-05-07T23:07:04.194Z,49.68
2018-05-07T23:09:31.587Z,49.75
2018-05-07T23:11:58.987Z,50.60
2018-05-07T23:14:26.371Z,49.52
2018-05-07T23:16:53.768Z,49.87
2018-05-07T23:19:21.153Z,50.07
2018-05-07T23:21:48.556Z,49.94
2018-05-07T23:24:15.948Z,50.06
2018-05-07T23:26:43.335Z,50.49
2018-05-07T23:29:10.731Z,50.42
2018-05-07T23:31:38.123Z,50.31
2018-05-07T23:34:05.516Z,50.67
2018-05-07T23:36:32.907Z,50.85
2018-05-07T23:39:00.299Z,51.19
2018-05-07T23:41:27.695Z,50.75
2018-05-07T23:43:55.083Z,50.72
2018-05-07T23:46:22.475Z,50.89
2018-05-07T23:48:49.866Z,50.88
2018-05-07T23:51:17.255Z,51.33
2018-05-07T23:53:44.647Z,51.36
2018-05-07T23:56:12.029Z,51.21
2018-05-07T23:58:39.414Z,50.81
